Time;durP1;ratioP1;P1;durP2;ratioP2;P2;SDS_P1;SDS_P2;PMS_P1;PMS_P2;Temp;Humidity;BMP_temperature;BMP_pressure;BME280_temperature;BME280_humidity;BME280_pressure;Samples;Min_cycle;Max_cycle;Signal;HPM_P1;HPM_P2
2023/06/21 00:01:31;;;;;;;8.32;6.72;;;;;;;19.21;100.00;101068.13;4938466;28;20499;-85
2023/06/21 00:03:59;;;;;;;6.43;5.80;;;;;;;19.19;100.00;101067.31;4948160;29;20055;-86
2023/06/21 00:06:29;;;;;;;9.93;6.18;;;;;;;19.17;100.00;101076.25;4947865;29;20063;-85
2023/06/21 00:08:57;;;;;;;7.78;6.32;;;;;;;19.15;100.00;101088.78;4937852;28;20051;-86
2023/06/21 00:11:24;;;;;;;7.38;6.68;;;;;;;19.13;100.00;101085.28;4949610;28;20043;-86
2023/06/21 00:13:57;;;;;;;10.40;7.80;;;;;;;19.11;100.00;101095.13;4944790;28;20058;-86
2023/06/21 00:16:24;;;;;;;9.88;8.52;;;;;;;19.09;100.00;101090.72;4947334;28;20066;-86
2023/06/21 00:18:52;;;;;;;10.98;9.15;;;;;;;19.09;100.00;101093.41;4934316;28;20517;-85
2023/06/21 00:21:20;;;;;;;10.05;9.05;;;;;;;19.08;100.00;101096.97;4980024;28;20043;-85
2023/06/21 00:23:47;;;;;;;15.63;12.13;;;;;;;19.07;100.00;101097.91;4906417;29;20051;-85
2023/06/21 00:26:15;;;;;;;17.00;12.50;;;;;;;19.06;100.00;101104.16;4928165;29;20415;-85
2023/06/21 00:28:42;;;;;;;14.90;12.32;;;;;;;19.05;100.00;101101.53;4960196;28;20047;-85
2023/06/21 00:31:10;;;;;;;14.15;12.80;;;;;;;19.05;100.00;101097.09;4925691;29;20039;-85
2023/06/21 00:33:38;;;;;;;16.17;14.35;;;;;;;19.04;100.00;101097.13;4933794;29;20055;-85
2023/06/21 00:36:06;;;;;;;16.65;14.73;;;;;;;19.04;100.00;101095.31;4948480;29;20529;-85
2023/06/21 00:38:34;;;;;;;17.15;15.07;;;;;;;19.03;100.00;101101.56;4948091;29;20465;-86
2023/06/21 00:41:04;;;;;;;23.08;16.40;;;;;;;19.02;100.00;101097.16;4934311;28;20490;-86
2023/06/21 00:43:32;;;;;;;19.27;16.58;;;;;;;19.03;100.00;101100.69;4962227;28;20066;-86
2023/06/21 00:46:00;;;;;;;22.27;18.45;;;;;;;19.01;100.00;101095.41;4950400;28;20043;-86
2023/06/21 00:48:28;;;;;;;21.33;18.02;;;;;;;19.00;100.00;101101.66;4936413;29;20047;-84
2023/06/21 00:51:01;;;;;;;21.00;18.10;;;;;;;19.00;100.00;101109.69;4935024;29;20039;-84
2023/06/21 00:53:30;;;;;;;22.52;18.27;;;;;;;18.99;100.00;101107.91;4935446;29;20058;-84
2023/06/21 00:56:00;;;;;;;23.70;19.63;;;;;;;19.01;100.00;101111.41;4911214;29;20047;-85
2023/06/21 00:58:28;;;;;;;22.35;19.00;;;;;;;18.98;100.00;101111.53;4951525;29;20498;-85
2023/06/21 01:00:57;;;;;;;27.30;22.27;;;;;;;18.99;100.00;101099.91;4963535;28;20048;-88
2023/06/21 01:03:25;;;;;;;24.65;21.70;;;;;;;18.98;100.00;101103.50;4919718;29;20423;-85
2023/06/21 01:06:16;;;;;;;24.15;20.08;;;;;;;18.96;100.00;101108.03;4937476;29;20046;-85
2023/06/21 01:09:10;;;;;;;26.58;21.27;;;;;;;18.96;100.00;101113.38;4943395;28;20051;-85
2023/06/21 01:11:58;;;;;;;26.27;21.48;;;;;;;18.97;100.00;101117.78;4950407;28;20039;-86
2023/06/21 01:14:40;;;;;;;31.02;23.42;;;;;;;18.99;100.00;101109.72;4967327;28;20047;-85
2023/06/21 01:17:11;;;;;;;28.42;23.20;;;;;;;19.00;100.00;101109.69;4953353;28;20058;-87
2023/06/21 01:19:41;;;;;;;31.33;24.33;;;;;;;18.99;100.00;101121.28;4938373;29;20051;-85
2023/06/21 01:22:22;;;;;;;29.98;22.90;;;;;;;19.01;100.00;101119.44;4951516;29;20044;-85
2023/06/21 01:25:06;;;;;;;27.98;22.40;;;;;;;19.00;100.00;101116.84;4968184;28;20051;-85
2023/06/21 01:28:09;;;;;;;32.63;24.38;;;;;;;19.02;100.00;101128.34;4924230;28;20051;-86
2023/06/21 01:30:41;;;;;;;29.42;23.67;;;;;;;19.01;100.00;101124.78;4896431;28;20055;-86
2023/06/21 01:33:10;;;;;;;28.92;24.40;;;;;;;19.02;100.00;101123.00;4953888;28;20050;-85
2023/06/21 01:35:38;;;;;;;32.38;24.98;;;;;;;19.03;100.00;101136.28;4943135;29;20051;-85
2023/06/21 01:38:06;;;;;;;32.80;25.50;;;;;;;19.04;100.00;101130.03;4935442;29;20059;-84
2023/06/21 01:40:37;;;;;;;32.65;25.30;;;;;;;19.05;100.00;101125.56;4930919;29;20414;-87
2023/06/21 01:43:06;;;;;;;30.90;25.13;;;;;;;19.06;100.00;101135.34;4928387;28;20051;-86
2023/06/21 01:45:34;;;;;;;28.88;24.30;;;;;;;19.06;100.00;101138.03;4949431;29;20055;-86
2023/06/21 01:48:03;;;;;;;33.80;24.95;;;;;;;19.05;100.00;101142.50;4962491;28;20047;-85
2023/06/21 01:50:36;;;;;;;32.85;25.10;;;;;;;19.05;100.00;101137.16;4957388;28;20058;-87
2023/06/21 01:53:32;;;;;;;35.75;26.40;;;;;;;19.06;100.00;101141.56;4958833;28;20047;-84
2023/06/21 01:56:02;;;;;;;35.92;27.40;;;;;;;19.05;100.00;101153.19;4934763;29;20722;-84
2023/06/21 01:58:31;;;;;;;34.35;26.23;;;;;;;19.05;100.00;101134.47;4916168;28;20400;-86
2023/06/21 02:01:02;;;;;;;40.55;28.15;;;;;;;19.04;100.00;101135.38;4935328;29;20055;-85
2023/06/21 02:03:32;;;;;;;38.97;29.10;;;;;;;19.04;100.00;101146.06;4959452;28;20127;-86
2023/06/21 02:06:05;;;;;;;32.88;25.83;;;;;;;19.03;100.00;101133.63;4957859;28;20043;-85
2023/06/21 02:08:33;;;;;;;39.35;27.58;;;;;;;19.05;100.00;101141.59;4951401;29;20067;-85
2023/06/21 02:11:01;;;;;;;34.30;26.55;;;;;;;19.05;100.00;101145.16;4950711;29;20040;-85
2023/06/21 02:13:29;;;;;;;33.92;27.05;;;;;;;19.06;100.00;101143.34;4928394;28;20475;-86
2023/06/21 02:15:57;;;;;;;32.72;25.95;;;;;;;19.05;100.00;101145.16;4951427;28;20052;-85
2023/06/21 02:18:25;;;;;;;36.47;25.08;;;;;;;19.07;100.00;101150.44;4946474;28;20055;-84
2023/06/21 02:20:53;;;;;;;37.67;27.42;;;;;;;19.06;100.00;101160.25;4942365;28;20059;-86
2023/06/21 02:23:21;;;;;;;42.33;27.88;;;;;;;19.06;100.00;101159.38;4951530;29;20058;-84
2023/06/21 02:25:50;;;;;;;31.58;25.55;;;;;;;19.05;100.00;101153.19;4963473;28;20085;-85
2023/06/21 02:28:20;;;;;;;34.93;25.00;;;;;;;19.04;100.00;101156.75;4952922;29;20533;-86
2023/06/21 02:30:47;;;;;;;34.83;26.30;;;;;;;19.02;100.00;101163.94;4913827;28;20047;-86
2023/06/21 02:33:15;;;;;;;37.78;25.58;;;;;;;19.02;100.00;101171.06;4920177;29;20058;-85
2023/06/21 02:35:43;;;;;;;33.17;24.25;;;;;;;19.00;100.00;101163.09;4925254;28;20051;-85
2023/06/21 02:38:10;;;;;;;37.75;26.20;;;;;;;19.00;100.00;101163.09;4916288;29;20507;-86
2023/06/21 02:40:38;;;;;;;32.92;24.85;;;;;;;19.00;100.00;101165.78;4941975;29;20066;-85
2023/06/21 02:43:11;;;;;;;37.72;26.73;;;;;;;19.00;100.00;101159.56;4936837;28;20525;-83
2023/06/21 02:45:38;;;;;;;37.13;26.50;;;;;;;18.99;100.00;101158.66;4919579;28;20051;-86
2023/06/21 02:48:06;;;;;;;38.92;26.58;;;;;;;18.98;100.00;101162.25;4951817;29;20058;-85
2023/06/21 02:50:35;;;;;;;40.00;26.00;;;;;;;18.97;100.00;101163.16;4931709;29;20063;-85
2023/06/21 02:53:24;;;;;;;34.22;24.52;;;;;;;18.98;100.00;101164.94;4933058;29;20526;-87
2023/06/21 02:55:53;;;;;;;35.70;25.50;;;;;;;18.97;100.00;101176.53;4950216;29;20422;-85
2023/06/21 02:58:21;;;;;;;33.63;25.88;;;;;;;18.97;100.00;101175.66;4961772;28;20052;-85
2023/06/21 03:00:48;;;;;;;35.83;25.95;;;;;;;18.96;100.00;101174.78;4905923;28;20528;-84
2023/06/21 03:03:16;;;;;;;41.17;27.40;;;;;;;18.97;100.00;101170.31;4956453;28;20043;-85
2023/06/21 03:05:49;;;;;;;31.85;24.90;;;;;;;18.96;100.00;101161.44;4916041;28;20063;-85
2023/06/21 03:08:16;;;;;;;38.28;27.50;;;;;;;18.98;100.00;101178.28;4945514;28;20051;-85
2023/06/21 03:10:44;;;;;;;34.55;25.08;;;;;;;18.98;100.00;101175.63;4947719;29;20431;-85
2023/06/21 03:13:12;;;;;;;33.30;26.88;;;;;;;18.97;100.00;101189.00;4983199;28;20047;-85
2023/06/21 03:15:40;;;;;;;33.65;26.38;;;;;;;18.95;100.00;101185.50;4955667;28;20054;-86
2023/06/21 03:18:08;;;;;;;38.53;28.67;;;;;;;18.96;100.00;101195.25;4937439;29;20406;-85
2023/06/21 03:20:35;;;;;;;39.65;28.10;;;;;;;18.94;100.00;101183.72;4932664;28;20470;-86
2023/06/21 03:23:03;;;;;;;39.38;30.85;;;;;;;18.92;100.00;101189.09;4915917;29;20048;-85
2023/06/21 03:25:30;;;;;;;38.75;31.35;;;;;;;18.89;100.00;101187.41;4963304;28;20094;-85
2023/06/21 03:27:59;;;;;;;39.05;30.55;;;;;;;18.88;100.00;101190.09;4919229;29;20344;-85
2023/06/21 03:30:29;;;;;;;42.30;31.17;;;;;;;18.87;100.00;101201.72;4965752;28;20051;-85
2023/06/21 03:33:00;;;;;;;40.20;31.70;;;;;;;18.84;100.00;101207.13;4940256;28;20062;-85
2023/06/21 03:35:29;;;;;;;41.95;31.20;;;;;;;18.81;100.00;101212.53;4929220;28;20050;-85
2023/06/21 03:37:57;;;;;;;46.05;33.60;;;;;;;18.77;100.00;101216.16;4945322;28;20055;-85
2023/06/21 03:40:34;;;;;;;46.97;33.08;;;;;;;18.73;100.00;101206.50;4957627;28;20059;-85
2023/06/21 03:43:03;;;;;;;47.35;33.05;;;;;;;18.70;100.00;101210.13;4966204;28;20036;-85
2023/06/21 03:45:31;;;;;;;43.60;33.45;;;;;;;18.69;100.00;101219.94;4934650;29;20047;-86
2023/06/21 03:48:04;;;;;;;45.95;33.60;;;;;;;18.68;100.00;101223.50;4923443;28;20074;-85
2023/06/21 03:50:34;;;;;;;46.72;34.70;;;;;;;18.68;100.00;101234.19;4964966;28;20058;-86
2023/06/21 03:53:03;;;;;;;45.22;33.30;;;;;;;18.69;100.00;101225.28;4940960;28;20047;-85
2023/06/21 03:55:31;;;;;;;49.70;36.03;;;;;;;18.68;100.00;101228.84;4961171;28;20059;-85
2023/06/21 03:58:00;;;;;;;48.90;35.85;;;;;;;18.68;100.00;101225.31;4907501;29;20044;-84
2023/06/21 04:00:28;;;;;;;42.65;34.17;;;;;;;18.65;100.00;101220.91;4964563;28;20062;-86
2023/06/21 04:02:56;;;;;;;47.08;34.38;;;;;;;18.65;100.00;101228.91;4898782;28;20055;-85
2023/06/21 04:05:24;;;;;;;50.38;36.45;;;;;;;18.68;100.00;101233.31;4945462;28;20051;-85
2023/06/21 04:07:52;;;;;;;46.83;34.53;;;;;;;18.70;100.00;101232.34;4940913;28;20040;-85
2023/06/21 04:10:19;;;;;;;43.58;34.15;;;;;;;18.80;100.00;101237.47;4942189;29;20454;-85
2023/06/21 04:12:47;;;;;;;44.90;33.97;;;;;;;18.90;100.00;101241.69;4930842;28;20047;-85
2023/06/21 04:15:16;;;;;;;43.13;33.60;;;;;;;18.96;100.00;101252.22;4932423;29;20094;-84
2023/06/21 04:17:43;;;;;;;44.45;32.63;;;;;;;19.01;100.00;101257.44;4930392;29;20051;-86
2023/06/21 04:20:14;;;;;;;50.55;34.25;;;;;;;18.99;100.00;101251.25;4944388;28;20047;-86
2023/06/21 04:22:44;;;;;;;47.13;35.55;;;;;;;18.94;100.00;101258.50;4948347;28;20050;-85
2023/06/21 04:25:14;;;;;;;42.58;32.03;;;;;;;18.92;100.00;101250.53;4931378;28;20558;-86
2023/06/21 04:27:45;;;;;;;42.53;33.08;;;;;;;18.88;100.00;101254.19;4916978;29;20051;-84
2023/06/21 04:30:16;;;;;;;45.40;35.03;;;;;;;18.85;100.00;101270.31;4935721;29;20047;-86
2023/06/21 04:32:46;;;;;;;49.53;34.15;;;;;;;18.82;100.00;101268.56;4935089;29;20048;-85
2023/06/21 04:35:17;;;;;;;43.13;33.55;;;;;;;18.83;100.00;101269.47;4920460;28;20059;-86
2023/06/21 04:37:47;;;;;;;40.65;32.20;;;;;;;18.83;100.00;101269.47;4949648;28;20047;-86
2023/06/21 04:40:17;;;;;;;42.47;32.35;;;;;;;18.81;100.00;101266.84;4947683;28;20051;-86
2023/06/21 04:42:47;;;;;;;44.58;31.98;;;;;;;18.80;100.00;101274.84;4930813;29;20051;-84
2023/06/21 04:45:16;;;;;;;45.72;32.63;;;;;;;18.81;100.00;101280.19;4937184;29;20501;-85
2023/06/21 04:47:48;;;;;;;42.58;32.20;;;;;;;18.78;100.00;101282.88;4938088;29;20071;-85
2023/06/21 04:50:16;;;;;;;42.83;32.28;;;;;;;18.83;100.00;101288.16;4920147;28;20533;-87
2023/06/21 04:52:47;;;;;;;44.78;33.90;;;;;;;18.81;100.00;101285.53;4966272;28;20055;-86
2023/06/21 04:55:17;;;;;;;46.78;32.60;;;;;;;18.84;100.00;101279.22;4936501;28;20055;-85
2023/06/21 04:57:47;;;;;;;42.45;32.05;;;;;;;18.86;100.00;101283.59;4953008;28;20513;-84
2023/06/21 05:00:19;;;;;;;42.83;31.90;;;;;;;18.86;100.00;101285.41;4950113;29;20511;-85
2023/06/21 05:02:47;;;;;;;48.55;32.53;;;;;;;18.89;100.00;101282.66;4960131;28;20054;-84
2023/06/21 05:05:15;;;;;;;44.28;31.88;;;;;;;18.91;100.00;101283.50;4909821;28;20047;-84
2023/06/21 05:07:42;;;;;;;44.40;34.17;;;;;;;18.95;100.00;101286.97;4921027;29;20047;-85
2023/06/21 05:10:11;;;;;;;44.70;31.90;;;;;;;18.93;100.00;101296.81;4935210;28;20695;-82
2023/06/21 05:12:38;;;;;;;50.53;33.53;;;;;;;18.93;100.00;101299.50;4969515;28;20058;-83
2023/06/21 05:15:07;;;;;;;44.40;30.95;;;;;;;18.96;100.00;101304.75;4984764;28;20820;-82
2023/06/21 05:17:34;;;;;;;50.20;31.52;;;;;;;18.97;100.00;101307.38;4923098;29;20078;-82
2023/06/21 05:20:04;;;;;;;41.70;30.70;;;;;;;18.97;100.00;101294.03;4928836;29;20047;-81
2023/06/21 05:22:32;;;;;;;40.03;29.92;;;;;;;19.00;100.00;101299.31;4946236;28;20047;-83
2023/06/21 05:25:02;;;;;;;41.33;28.77;;;;;;;19.01;100.00;101300.16;4947402;28;20042;-83
2023/06/21 05:27:30;;;;;;;;;;;;;;;19.01;100.00;101306.38;4943353;28;20058;-82
2023/06/21 05:30:00;;;;;;;34.33;24.95;;;;;;;18.98;100.00;101303.81;4945331;28;19930;-82
2023/06/21 05:32:28;;;;;;;38.42;27.33;;;;;;;19.01;100.00;101301.03;4928580;28;20054;-80
2023/06/21 05:34:56;;;;;;;34.97;26.02;;;;;;;19.00;100.00;101301.09;4951809;28;20054;-81
2023/06/21 05:37:24;;;;;;;32.42;24.50;;;;;;;18.96;100.00;101308.31;4906498;28;20047;-81
2023/06/21 05:39:51;;;;;;;38.30;25.85;;;;;;;18.99;100.00;101313.56;4960557;28;20058;-83
2023/06/21 05:42:19;;;;;;;30.58;22.52;;;;;;;19.02;100.00;101310.81;4925299;28;20052;-81
2023/06/21 05:44:46;;;;;;;31.33;21.27;;;;;;;19.18;100.00;101307.75;4969868;28;20035;-81
2023/06/21 05:47:15;;;;;;;29.77;21.05;;;;;;;19.32;100.00;101316.31;4914450;29;20079;-80
2023/06/21 05:49:44;;;;;;;27.67;20.90;;;;;;;19.44;100.00;101315.97;4947851;28;20160;-81
2023/06/21 05:52:12;;;;;;;28.00;20.25;;;;;;;19.55;100.00;101325.53;4909103;28;20051;-81
2023/06/21 05:54:41;;;;;;;29.25;19.73;;;;;;;19.67;100.00;101330.53;4950708;29;20061;-82
2023/06/21 05:57:10;;;;;;;23.75;18.10;;;;;;;19.72;100.00;101333.09;4966384;28;20043;-80
2023/06/21 05:59:37;;;;;;;26.35;19.75;;;;;;;19.90;100.00;101334.41;4916646;29;20055;-82
2023/06/21 06:02:06;;;;;;;23.73;18.33;;;;;;;19.89;100.00;101330.00;4918015;29;20047;-82
2023/06/21 06:04:33;;;;;;;22.25;17.63;;;;;;;20.09;100.00;101342.78;4935332;28;20047;-82
2023/06/21 06:07:00;;;;;;;26.67;18.40;;;;;;;20.16;100.00;101355.94;4914885;28;20062;-80
2023/06/21 06:09:28;;;;;;;24.02;17.92;;;;;;;20.30;100.00;101357.34;4919322;28;20043;-81
2023/06/21 06:11:56;;;;;;;20.48;16.95;;;;;;;20.49;100.00;101366.59;4931120;28;20050;-82
2023/06/21 06:14:24;;;;;;;22.30;16.15;;;;;;;20.56;100.00;101373.50;4919458;28;20066;-80
2023/06/21 06:16:53;;;;;;;20.30;15.65;;;;;;;20.69;100.00;101382.09;4940182;28;20058;-81
2023/06/21 06:19:21;;;;;;;22.23;15.63;;;;;;;20.72;100.00;101378.41;4964327;28;20070;-81
2023/06/21 06:21:50;;;;;;;22.27;15.30;;;;;;;20.53;100.00;101381.66;4965307;28;20050;-80
2023/06/21 06:24:18;;;;;;;20.45;15.18;;;;;;;20.43;100.00;101382.81;4906694;28;20048;-81
2023/06/21 06:26:45;;;;;;;23.40;14.70;;;;;;;20.40;100.00;101396.31;4953848;28;20062;-81
2023/06/21 06:29:13;;;;;;;20.08;14.35;;;;;;;20.40;100.00;101388.28;4899165;28;20055;-82
2023/06/21 06:31:40;;;;;;;17.40;13.75;;;;;;;20.43;100.00;101393.53;4941802;28;20047;-82
2023/06/21 06:34:08;;;;;;;20.00;14.57;;;;;;;20.49;100.00;101398.72;4929530;28;20075;-81
2023/06/21 06:36:35;;;;;;;18.63;13.90;;;;;;;20.48;100.00;101407.66;4974242;28;20050;-81
2023/06/21 06:39:02;;;;;;;18.45;13.30;;;;;;;20.49;100.00;101409.44;4897381;28;20054;-81
2023/06/21 06:41:34;;;;;;;17.05;13.82;;;;;;;20.50;100.00;101421.00;4917321;29;20058;-81
2023/06/21 06:44:05;;;;;;;21.23;14.50;;;;;;;20.48;100.00;101420.19;4940737;28;20051;-81
2023/06/21 06:46:33;;;;;;;16.65;13.50;;;;;;;20.42;100.00;101423.91;4960136;28;20074;-81
2023/06/21 06:49:01;;;;;;;18.33;12.32;;;;;;;20.36;100.00;101427.63;4902509;29;20697;-81
2023/06/21 06:51:28;;;;;;;14.05;12.25;;;;;;;20.34;100.00;101423.22;4957960;28;20051;-81
2023/06/21 06:53:55;;;;;;;17.67;12.77;;;;;;;20.42;100.00;101429.25;4946218;29;20056;-81
2023/06/21 06:56:23;;;;;;;19.90;13.13;;;;;;;20.42;100.00;101426.59;4924872;28;20070;-82
2023/06/21 06:58:51;;;;;;;23.08;13.60;;;;;;;20.41;100.00;101436.41;4957195;28;20135;-81
2023/06/21 07:01:18;;;;;;;16.45;12.82;;;;;;;20.53;100.00;101435.19;4930504;28;20054;-81
2023/06/21 07:03:46;;;;;;;19.73;13.75;;;;;;;20.67;100.00;101437.47;4937894;28;20506;-81
2023/06/21 07:06:13;;;;;;;17.27;13.05;;;;;;;20.78;100.00;101442.53;4907553;29;20060;-81
2023/06/21 07:08:44;;;;;;;16.38;12.93;;;;;;;20.89;100.00;101447.53;4960547;28;20545;-81
2023/06/21 07:11:11;;;;;;;16.75;12.80;;;;;;;20.97;100.00;101451.75;4919823;28;20055;-81
2023/06/21 07:13:40;;;;;;;15.98;13.07;;;;;;;20.99;100.00;101449.91;4945442;28;20509;-80
2023/06/21 07:16:09;;;;;;;21.23;13.60;;;;;;;20.97;100.00;101454.44;4914212;29;20043;-81
2023/06/21 07:18:36;;;;;;;15.38;11.23;;;;;;;21.03;100.00;101458.72;4929623;28;20423;-80
2023/06/21 07:21:04;;;;;;;13.93;11.60;;;;;;;21.07;100.00;101465.75;4941322;28;20058;-81
2023/06/21 07:23:31;;;;;;;15.45;11.63;;;;;;;21.08;100.00;101472.88;4966253;28;20388;-82
2023/06/21 07:25:59;;;;;;;14.50;12.15;;;;;;;21.13;100.00;101465.53;4911048;28;20055;-81
2023/06/21 07:28:26;;;;;;;13.23;11.57;;;;;;;21.17;100.00;101464.56;4958654;28;20055;-81
2023/06/21 07:30:53;;;;;;;14.85;11.60;;;;;;;21.26;100.00;101471.41;4922781;29;20698;-82
2023/06/21 07:33:21;;;;;;;16.50;12.20;;;;;;;21.37;100.00;101477.31;4949239;28;20047;-81
2023/06/21 07:35:50;;;;;;;14.68;11.30;;;;;;;21.47;100.00;101469.00;4936775;28;20059;-80
2023/06/21 07:38:18;;;;;;;14.20;10.57;;;;;;;21.50;100.00;101464.41;4949854;28;20422;-81
2023/06/21 07:40:46;;;;;;;14.70;12.07;;;;;;;21.63;100.00;101459.53;4942832;29;20062;-81
2023/06/21 07:43:14;;;;;;;13.55;11.02;;;;;;;21.73;100.00;101460.09;4944406;28;20048;-81
2023/06/21 07:45:41;;;;;;;16.88;12.07;;;;;;;21.80;100.00;101459.84;4921724;29;20637;-82
2023/06/21 07:48:09;;;;;;;13.98;11.52;;;;;;;21.88;100.00;101466.75;4948143;28;20070;-81
2023/06/21 07:50:36;;;;;;;16.25;11.50;;;;;;;21.95;100.00;101468.31;4928302;28;20058;-81
2023/06/21 07:53:04;;;;;;;13.68;11.68;;;;;;;21.95;100.00;101473.66;4956727;28;20426;-82
2023/06/21 07:55:31;;;;;;;13.98;10.10;;;;;;;22.00;100.00;101475.28;4951517;28;20062;-80
2023/06/21 07:57:58;;;;;;;15.30;10.70;;;;;;;22.02;100.00;101477.88;4917838;28;26332;-82
2023/06/21 08:00:26;;;;;;;11.15;10.05;;;;;;;22.12;100.00;101491.88;4933758;28;20059;-80
2023/06/21 08:02:56;;;;;;;10.80;9.75;;;;;;;22.12;100.00;101503.47;4959532;28;20062;-81
2023/06/21 08:05:24;;;;;;;13.45;10.00;;;;;;;22.09;100.00;101514.31;4975568;28;20044;-80
2023/06/21 08:07:51;;;;;;;13.55;10.52;;;;;;;22.06;100.00;101514.44;4956268;28;20244;-80
2023/06/21 08:10:19;;;;;;;13.23;9.15;;;;;;;22.09;100.00;101518.81;4957052;28;20071;-80
2023/06/21 08:12:46;;;;;;;12.13;9.07;;;;;;;22.12;100.00;101521.41;4957354;28;20070;-81
2023/06/21 08:15:13;;;;;;;11.88;9.02;;;;;;;22.17;100.00;101520.31;4944836;28;20051;-82
2023/06/21 08:17:41;;;;;;;10.68;9.13;;;;;;;22.20;100.00;101511.25;4959965;28;20050;-80
2023/06/21 08:20:09;;;;;;;11.27;8.27;;;;;;;22.28;100.00;101505.66;4941333;28;20058;-81
2023/06/21 08:22:36;;;;;;;8.43;7.43;;;;;;;22.37;100.00;101513.38;4934340;28;20506;-81
2023/06/21 08:25:04;;;;;;;9.23;7.10;;;;;;;22.45;100.00;101513.97;4959849;28;20078;-80
2023/06/21 08:27:31;;;;;;;8.25;7.45;;;;;;;22.52;100.00;101520.88;4978494;28;20066;-81
2023/06/21 08:29:59;;;;;;;8.75;6.63;;;;;;;22.58;100.00;101526.03;4914249;28;20427;-80
2023/06/21 08:32:27;;;;;;;10.38;7.47;;;;;;;22.63;100.00;101517.81;4895337;28;20094;-80
2023/06/21 08:34:55;;;;;;;8.25;7.43;;;;;;;22.61;100.00;101511.63;4916880;29;20117;-81
2023/06/21 08:37:25;;;;;;;8.50;7.18;;;;;;;22.54;100.00;101526.22;4965587;28;20059;-81
2023/06/21 08:39:52;;;;;;;7.78;6.97;;;;;;;22.58;100.00;101530.53;4961775;28;20051;-82
2023/06/21 08:42:23;;;;;;;8.15;7.13;;;;;;;22.60;100.00;101533.16;4954924;28;20051;-81
2023/06/21 08:44:51;;;;;;;8.75;7.13;;;;;;;22.70;100.00;101524.72;4975598;28;20061;-80
2023/06/21 08:47:22;;;;;;;7.00;6.20;;;;;;;22.74;100.00;101536.22;4928641;28;20051;-81
2023/06/21 08:49:52;;;;;;;8.13;6.88;;;;;;;22.75;100.00;101537.97;4943955;28;20051;-80
2023/06/21 08:52:22;;;;;;;8.43;7.05;;;;;;;22.77;100.00;101531.59;4953283;28;20082;-81
2023/06/21 08:55:05;;;;;;;8.43;7.53;;;;;;;22.81;100.00;101539.56;4951601;28;20047;-80
2023/06/21 08:57:41;;;;;;;9.63;7.15;;;;;;;22.87;100.00;101542.91;4951663;28;20120;-81
2023/06/21 09:00:12;;;;;;;7.50;5.93;;;;;;;22.96;100.00;101541.66;4949519;29;20084;-81
2023/06/21 09:03:01;;;;;;;6.75;6.05;;;;;;;23.02;100.00;101543.25;4897463;29;20075;-82
2023/06/21 09:05:45;;;;;;;7.65;5.88;;;;;;;23.00;100.00;101543.31;4937399;28;20047;-81
2023/06/21 09:08:14;;;;;;;6.57;5.93;;;;;;;23.03;100.00;101550.41;4941360;28;20058;-82
2023/06/21 09:10:43;;;;;;;9.57;6.60;;;;;;;23.03;100.00;101558.47;4951937;28;20062;-81
2023/06/21 09:13:12;;;;;;;9.27;6.68;;;;;;;23.05;100.00;101565.56;4947985;29;20051;-80
2023/06/21 09:15:40;;;;;;;9.25;6.80;;;;;;;23.02;100.00;101554.88;4964687;28;20830;-81
2023/06/21 09:18:09;;;;;;;7.45;6.75;;;;;;;23.08;100.00;101561.88;4912705;28;20407;-80
2023/06/21 09:20:38;;;;;;;7.32;6.63;;;;;;;23.19;100.00;101559.63;4945072;28;20058;-81
2023/06/21 09:23:05;;;;;;;7.78;6.18;;;;;;;23.33;100.00;101570.75;4950126;28;20046;-80
2023/06/21 09:25:33;;;;;;;8.40;6.85;;;;;;;23.48;100.00;101563.91;4956297;28;20063;-81
2023/06/21 09:28:00;;;;;;;8.93;5.78;;;;;;;23.60;100.00;101567.03;4931618;29;20398;-81
2023/06/21 09:30:28;;;;;;;7.28;5.63;;;;;;;23.69;100.00;101570.22;4960556;28;20051;-82
2023/06/21 09:33:04;;;;;;;8.75;6.15;;;;;;;23.74;100.00;101570.94;4913483;28;20055;-81
2023/06/21 09:35:33;;;;;;;9.07;5.80;;;;;;;23.75;100.00;101572.66;4955766;28;20047;-82
2023/06/21 09:38:00;;;;;;;7.47;5.85;;;;;;;23.81;100.00;101579.66;4929469;29;20048;-81
2023/06/21 09:40:28;;;;;;;9.27;6.72;;;;;;;23.78;100.00;101578.88;4925728;28;20532;-81
2023/06/21 09:42:55;;;;;;;6.07;5.28;;;;;;;23.79;100.00;101586.03;4943858;28;20059;-81
2023/06/21 09:45:22;;;;;;;7.97;6.03;;;;;;;23.90;100.00;101583.78;4949335;29;20066;-81
2023/06/21 09:47:53;;;;;;;9.30;5.20;;;;;;;24.05;100.00;101583.16;4928354;28;20058;-81
2023/06/21 09:50:20;;;;;;;8.35;5.30;;;;;;;24.15;100.00;101580.09;4977554;28;20507;-81
2023/06/21 09:52:48;;;;;;;9.43;5.32;;;;;;;24.16;100.00;101587.19;4938849;28;20418;-80
2023/06/21 09:55:16;;;;;;;6.50;4.45;;;;;;;24.19;100.00;101585.25;4936573;28;20054;-81
2023/06/21 09:57:45;;;;;;;6.27;4.27;;;;;;;24.26;100.00;101585.88;4932237;28;20059;-81
2023/06/21 10:00:13;;;;;;;4.55;4.10;;;;;;;24.30;100.00;101584.81;4962072;28;20047;-80
2023/06/21 10:02:42;;;;;;;5.47;4.97;;;;;;;24.36;100.00;101581.84;4938948;28;20039;-80
2023/06/21 10:05:19;;;;;;;8.63;5.03;;;;;;;24.46;100.00;101576.94;4940085;29;20419;-79
2023/06/21 10:07:48;;;;;;;6.72;4.47;;;;;;;24.50;100.00;101589.34;4946349;28;20051;-81
2023/06/21 10:10:18;;;;;;;6.57;4.68;;;;;;;24.64;100.00;101591.47;4946276;28;20062;-82
2023/06/21 10:12:54;;;;;;;5.65;4.07;;;;;;;24.65;100.00;101593.19;4937057;28;20537;-81
2023/06/21 10:15:23;;;;;;;5.45;3.85;;;;;;;24.65;100.00;101591.41;4938436;28;20059;-81
2023/06/21 10:17:52;;;;;;;6.63;4.65;;;;;;;24.71;100.00;101592.97;4927191;28;20078;-80
2023/06/21 10:20:23;;;;;;;5.78;3.80;;;;;;;24.70;100.00;101596.56;4948777;28;20055;-82
2023/06/21 10:22:52;;;;;;;5.05;4.28;;;;;;;24.67;100.00;101594.91;4918626;28;20422;-80
2023/06/21 10:25:20;;;;;;;4.72;3.88;;;;;;;24.71;100.00;101595.66;4942926;28;20047;-81
2023/06/21 10:27:52;;;;;;;4.60;3.80;;;;;;;24.80;100.00;101588.94;4951226;29;20048;-82
2023/06/21 10:30:22;;;;;;;5.30;4.72;;;;;;;24.88;100.00;101595.75;4928837;28;20059;-81
2023/06/21 10:32:54;;;;;;;4.60;3.72;;;;;;;24.98;100.00;101595.34;4946718;29;20051;-80
2023/06/21 10:35:25;;;;;;;5.68;4.25;;;;;;;24.99;100.00;101587.19;4888721;28;20055;-83
2023/06/21 10:38:22;;;;;;;4.90;3.90;;;;;;;25.04;100.00;101598.63;4921919;29;20058;-82
2023/06/21 10:40:52;;;;;;;5.57;3.92;;;;;;;25.14;100.00;101598.22;4929405;28;20051;-81
2023/06/21 10:43:21;;;;;;;;;;;;;;;25.02;95.20;101603.22;4939461;28;20399;-82
2023/06/21 10:45:49;;;;;;;5.95;3.90;;;;;;;24.93;100.00;101605.47;4964077;28;19922;-82
2023/06/21 10:48:20;;;;;;;3.85;3.42;;;;;;;24.84;100.00;101610.34;4966195;28;20058;-84
2023/06/21 10:50:48;;;;;;;6.78;3.80;;;;;;;24.78;100.00;101607.00;4936969;28;20062;-82
2023/06/21 10:53:19;;;;;;;7.93;3.65;;;;;;;24.69;100.00;101606.50;4964569;28;20057;-83
2023/06/21 10:55:49;;;;;;;5.15;4.63;;;;;;;24.71;100.00;101601.91;4926234;28;20051;-84
2023/06/21 10:58:19;;;;;;;5.53;3.80;;;;;;;24.74;100.00;101611.66;4956770;28;20066;-84
2023/06/21 11:00:47;;;;;;;3.95;3.55;;;;;;;24.68;100.00;101603.84;4947948;29;20043;-82
2023/06/21 11:03:23;;;;;;;3.92;3.58;;;;;;;24.74;100.00;101606.28;4934296;29;20857;-82
2023/06/21 11:06:21;;;;;;;6.00;4.18;;;;;;;24.74;100.00;101610.78;4937200;28;20047;-81
2023/06/21 11:08:49;;;;;;;3.88;3.17;;;;;;;24.87;100.00;101618.25;4923390;29;20051;-81
2023/06/21 11:11:31;;;;;;;3.30;3.00;;;;;;;24.98;95.96;101616.91;4960318;28;20062;-82
2023/06/21 11:14:04;;;;;;;5.57;4.07;;;;;;;24.90;97.98;101619.97;4915245;28;20059;-82
2023/06/21 11:16:34;;;;;;;4.05;3.70;;;;;;;24.79;99.52;101623.13;4948208;28;20047;-81
2023/06/21 11:19:08;;;;;;;;;;;;;;;24.69;97.33;101627.19;4937264;28;20055;-81